Time;durP1;ratioP1;P1;durP2;ratioP2;P2;SDS_P1;SDS_P2;PMS_P1;PMS_P2;Temp;Humidity;BMP_temperature;BMP_pressure;BME280_temperature;BME280_humidity;BME280_pressure;Samples;Min_cycle;Max_cycle;Signal;HPM_P1;HPM_P2
2022/12/25 00:04:43;;;;;;;3.95;1.92;;;;;;;;;;10471985;28;20114;-79
2022/12/25 00:09:47;;;;;;;3.57;1.70;;;;;;;;;;10466711;28;20036;-79
2022/12/25 00:14:50;;;;;;;2.92;1.77;;;;;;;;;;10477088;28;20036;-80
2022/12/25 00:19:53;;;;;;;2.40;1.27;;;;;;;;;;10463954;28;20406;-80
2022/12/25 00:25:07;;;;;;;2.47;1.35;;;;;;;;;;10476459;28;20037;-79
2022/12/25 00:30:10;;;;;;;5.65;2.05;;;;;;;;;;10468442;28;20048;-79
2022/12/25 00:35:14;;;;;;;4.95;2.03;;;;;;;;;;10468122;28;20040;-80
2022/12/25 00:40:18;;;;;;;4.55;1.58;;;;;;;;;;10473220;28;20052;-79
2022/12/25 00:45:20;;;;;;;2.83;1.67;;;;;;;;;;10458799;28;20029;-79
2022/12/25 00:50:23;;;;;;;4.90;2.00;;;;;;;;;;10478093;28;20120;-79
2022/12/25 00:55:27;;;;;;;1.88;1.15;;;;;;;;;;10475866;28;20048;-78
2022/12/25 01:00:30;;;;;;;4.47;1.50;;;;;;;;;;10479334;28;20041;-79
2022/12/25 01:05:32;;;;;;;3.35;1.85;;;;;;;;;;10463793;28;20055;-78
2022/12/25 01:10:36;;;;;;;1.45;0.70;;;;;;;;;;10479202;28;20048;-79
2022/12/25 01:15:39;;;;;;;1.95;0.98;;;;;;;;;;10478247;28;20082;-81
2022/12/25 01:20:41;;;;;;;0.82;0.55;;;;;;;;;;10469914;28;20037;-79
2022/12/25 01:25:45;;;;;;;2.53;1.00;;;;;;;;;;10476200;28;20090;-79
2022/12/25 01:30:49;;;;;;;2.25;0.68;;;;;;;;;;10493292;28;20040;-79
2022/12/25 01:35:52;;;;;;;2.38;1.08;;;;;;;;;;10481297;28;20482;-79
2022/12/25 01:40:56;;;;;;;1.60;1.02;;;;;;;;;;10483493;28;20294;-79
2022/12/25 01:45:59;;;;;;;2.25;0.95;;;;;;;;;;10480209;28;20536;-79
2022/12/25 01:51:03;;;;;;;1.55;0.90;;;;;;;;;;10476263;28;20489;-79
2022/12/25 01:56:08;;;;;;;2.72;0.93;;;;;;;;;;10470572;28;20044;-79
2022/12/25 02:01:11;;;;;;;3.33;0.98;;;;;;;;;;10482063;28;20082;-80
2022/12/25 02:06:16;;;;;;;1.33;0.55;;;;;;;;;;10477796;28;20439;-79
2022/12/25 02:16:39;;;;;;;1.13;0.80;;;;;;;;;;10473109;28;20044;-79
2022/12/25 02:22:08;;;;;;;2.08;0.93;;;;;;;;;;10471248;28;20521;-79
2022/12/25 02:27:17;;;;;;;1.60;0.80;;;;;;;;;;10475045;28;20033;-79
2022/12/25 02:32:25;;;;;;;1.60;0.47;;;;;;;;;;10479037;28;20490;-79
2022/12/25 02:37:31;;;;;;;1.35;0.80;;;;;;;;;;10475668;28;20540;-79
2022/12/25 03:31:15;;;;;;;1.10;0.65;;;;;;;;;;10460686;28;20044;-79
2022/12/25 03:36:27;;;;;;;0.60;0.50;;;;;;;;;;10478299;28;20028;-79
2022/12/25 04:40:45;;;;;;;0.35;0.30;;;;;;;;;;10468509;28;20328;-79
2022/12/25 04:45:52;;;;;;;1.10;0.70;;;;;;;;;;10471138;28;20297;-79
2022/12/25 04:50:55;;;;;;;1.48;0.70;;;;;;;;;;10477504;28;20068;-78
2022/12/25 04:56:01;;;;;;;1.27;0.57;;;;;;;;;;10465476;28;20482;-78
2022/12/25 05:01:05;;;;;;;0.43;0.43;;;;;;;;;;10463738;28;20482;-78
2022/12/25 05:06:07;;;;;;;1.67;0.68;;;;;;;;;;10475413;28;20486;-78
2022/12/25 05:11:13;;;;;;;0.63;0.63;;;;;;;;;;10472360;28;20044;-80
2022/12/25 05:16:16;;;;;;;0.80;0.70;;;;;;;;;;10467005;28;20048;-80
2022/12/25 05:21:19;;;;;;;1.15;0.80;;;;;;;;;;10470458;28;20485;-80
2022/12/25 05:26:24;;;;;;;2.78;0.90;;;;;;;;;;10470180;28;20198;-80
2022/12/25 05:31:27;;;;;;;3.35;0.73;;;;;;;;;;10462565;28;20041;-79
2022/12/25 05:36:30;;;;;;;1.27;1.00;;;;;;;;;;10474826;28;20044;-79
2022/12/25 05:41:34;;;;;;;1.35;0.80;;;;;;;;;;10465774;28;20045;-79
2022/12/25 05:46:37;;;;;;;1.25;0.98;;;;;;;;;;10474229;28;20128;-78
2022/12/25 05:51:40;;;;;;;1.48;0.47;;;;;;;;;;10484798;28;20511;-80
2022/12/25 05:56:44;;;;;;;1.40;0.85;;;;;;;;;;10475954;28;20033;-80
2022/12/25 06:01:46;;;;;;;0.52;0.52;;;;;;;;;;10482493;28;20052;-80
2022/12/25 06:06:49;;;;;;;2.95;1.00;;;;;;;;;;10477582;28;20310;-79
2022/12/25 06:11:53;;;;;;;0.93;0.50;;;;;;;;;;10468286;28;20780;-80
2022/12/25 06:16:56;;;;;;;1.05;0.57;;;;;;;;;;10475009;28;20041;-80
2022/12/25 06:21:58;;;;;;;2.22;0.70;;;;;;;;;;10473954;28;20051;-79
2022/12/25 06:27:03;;;;;;;0.40;0.22;;;;;;;;;;10473733;28;20047;-79
2022/12/25 06:32:05;;;;;;;0.90;0.70;;;;;;;;;;10481738;28;20052;-79
2022/12/25 06:37:08;;;;;;;1.38;0.75;;;;;;;;;;10479602;28;20052;-79
2022/12/25 06:42:13;;;;;;;1.38;0.63;;;;;;;;;;10481526;28;20040;-79
2022/12/25 06:47:15;;;;;;;;;;;;;;;;;;10483267;28;20048;-79
2022/12/25 06:52:18;;;;;;;0.65;0.63;;;;;;;;;;10489353;28;19925;-79
2022/12/25 06:57:32;;;;;;;0.55;0.50;;;;;;;;;;10464635;28;20044;-79
2022/12/25 07:02:37;;;;;;;1.13;0.88;;;;;;;;;;10471650;28;20048;-79
2022/12/25 07:07:40;;;;;;;0.98;0.60;;;;;;;;;;10467973;28;20086;-79
2022/12/25 07:12:44;;;;;;;0.65;0.60;;;;;;;;;;10481972;28;20048;-78
2022/12/25 07:17:46;;;;;;;2.90;1.13;;;;;;;;;;10469709;28;20122;-78
2022/12/25 07:22:49;;;;;;;0.50;0.50;;;;;;;;;;10469513;28;20102;-80
2022/12/25 07:27:53;;;;;;;7.38;1.08;;;;;;;;;;10472937;28;20048;-80
2022/12/25 07:32:55;;;;;;;;;;;;;;;;;;10470538;28;20059;-80
2022/12/25 07:37:58;;;;;;;1.45;1.13;;;;;;;;;;10480181;28;20363;-80
2022/12/25 07:43:02;;;;;;;1.75;0.63;;;;;;;;;;10480351;28;20128;-79
2022/12/25 07:48:06;;;;;;;0.75;0.75;;;;;;;;;;10480797;28;20405;-79
2022/12/25 07:53:17;;;;;;;0.98;0.75;;;;;;;;;;10483883;28;20047;-79
2022/12/25 07:58:21;;;;;;;1.33;0.93;;;;;;;;;;10474578;28;20558;-79
2022/12/25 08:03:25;;;;;;;2.05;0.75;;;;;;;;;;10454997;28;20044;-80
2022/12/25 08:08:29;;;;;;;2.33;0.80;;;;;;;;;;10489223;28;20041;-79
2022/12/25 08:13:33;;;;;;;0.57;0.57;;;;;;;;;;10470420;28;20453;-79
2022/12/25 08:18:36;;;;;;;1.70;0.88;;;;;;;;;;10493827;28;20110;-79
2022/12/25 08:23:40;;;;;;;0.77;0.77;;;;;;;;;;10518786;28;20028;-80
2022/12/25 08:28:45;;;;;;;0.98;0.65;;;;;;;;;;10519778;28;20017;-80
2022/12/25 08:33:49;;;;;;;0.43;0.43;;;;;;;;;;10493381;28;20083;-80
2022/12/25 08:38:51;;;;;;;0.70;0.60;;;;;;;;;;10480387;28;20032;-79
2022/12/25 08:44:03;;;;;;;1.40;0.77;;;;;;;;;;10465849;28;20036;-80
2022/12/25 08:49:06;;;;;;;1.38;0.98;;;;;;;;;;10465224;28;20033;-80
2022/12/25 08:54:09;;;;;;;2.20;1.20;;;;;;;;;;10476495;28;20064;-79
2022/12/25 08:59:14;;;;;;;3.70;1.07;;;;;;;;;;10468721;28;20546;-80
2022/12/25 09:04:16;;;;;;;2.78;1.55;;;;;;;;;;10474502;28;20036;-81
2022/12/25 09:09:19;;;;;;;0.82;0.82;;;;;;;;;;10465398;28;20145;-80
2022/12/25 09:14:23;;;;;;;1.10;1.10;;;;;;;;;;10477579;28;20060;-80
2022/12/25 09:19:26;;;;;;;1.75;1.50;;;;;;;;;;10472961;28;20033;-80
2022/12/25 09:24:29;;;;;;;1.27;1.17;;;;;;;;;;10499252;28;20036;-80
2022/12/25 09:29:33;;;;;;;1.88;1.30;;;;;;;;;;10521292;28;20025;-82
2022/12/25 09:34:36;;;;;;;1.45;1.30;;;;;;;;;;10533292;28;20114;-79
2022/12/25 09:39:38;;;;;;;1.50;1.20;;;;;;;;;;10499415;28;20416;-80
2022/12/25 09:44:51;;;;;;;2.28;1.30;;;;;;;;;;10482531;28;20040;-80
2022/12/25 09:49:56;;;;;;;1.60;1.35;;;;;;;;;;10470348;28;20059;-80
2022/12/25 09:55:02;;;;;;;1.88;1.33;;;;;;;;;;10473393;28;20036;-80
2022/12/25 10:00:12;;;;;;;1.38;1.20;;;;;;;;;;10469970;28;20371;-81
2022/12/25 10:05:32;;;;;;;1.90;1.65;;;;;;;;;;10466506;28;20048;-80
2022/12/25 10:10:42;;;;;;;1.83;1.30;;;;;;;;;;10476009;28;20123;-79
2022/12/25 10:15:50;;;;;;;1.08;1.00;;;;;;;;;;10479435;28;20112;-79
2022/12/25 10:20:54;;;;;;;1.60;1.50;;;;;;;;;;10475194;28;20078;-80
2022/12/25 10:25:56;;;;;;;5.00;1.63;;;;;;;;;;10471052;28;20056;-80
2022/12/25 10:31:02;;;;;;;1.58;1.48;;;;;;;;;;10465436;28;20045;-81
2022/12/25 10:36:05;;;;;;;2.25;1.55;;;;;;;;;;10469160;28;20075;-80
2022/12/25 10:41:17;;;;;;;5.50;2.80;;;;;;;;;;10477288;28;20047;-80
2022/12/25 10:46:22;;;;;;;3.50;1.83;;;;;;;;;;10483625;28;20506;-80
2022/12/25 10:51:29;;;;;;;1.83;1.60;;;;;;;;;;10464408;28;20048;-79
2022/12/25 10:56:33;;;;;;;1.83;1.70;;;;;;;;;;10485989;28;20048;-80
2022/12/25 11:01:38;;;;;;;1.80;1.70;;;;;;;;;;10472652;28;20721;-80
2022/12/25 11:06:42;;;;;;;2.72;1.60;;;;;;;;;;10471935;28;20040;-80
2022/12/25 11:11:47;;;;;;;2.42;1.58;;;;;;;;;;10469627;28;20493;-80
2022/12/25 11:16:51;;;;;;;2.25;1.33;;;;;;;;;;10479444;28;20036;-80
2022/12/25 11:21:54;;;;;;;1.85;1.30;;;;;;;;;;10468671;28;20119;-80
2022/12/25 11:26:58;;;;;;;1.90;1.75;;;;;;;;;;10474888;28;20040;-80
2022/12/25 11:32:02;;;;;;;1.10;1.10;;;;;;;;;;10465401;28;20585;-80
2022/12/25 11:37:08;;;;;;;2.10;1.20;;;;;;;;;;10472506;28;20037;-80
2022/12/25 11:42:18;;;;;;;1.45;1.17;;;;;;;;;;10475486;28;20036;-80
2022/12/25 11:47:38;;;;;;;2.28;2.00;;;;;;;;;;10510969;28;20039;-79
2022/12/25 11:52:58;;;;;;;2.05;1.80;;;;;;;;;;10531951;28;20054;-80
2022/12/25 11:58:15;;;;;;;2.00;1.30;;;;;;;;;;10506953;28;20143;-80
2022/12/25 12:03:34;;;;;;;1.10;1.00;;;;;;;;;;10508978;28;20820;-79
2022/12/25 12:08:46;;;;;;;3.25;1.95;;;;;;;;;;10514090;28;20067;-79
2022/12/25 12:14:14;;;;;;;1.83;1.70;;;;;;;;;;10491266;28;20507;-79
2022/12/25 12:19:38;;;;;;;1.90;1.50;;;;;;;;;;10493560;28;20036;-79
2022/12/25 12:24:48;;;;;;;2.88;1.70;;;;;;;;;;10510787;28;20405;-79
2022/12/25 12:30:09;;;;;;;1.35;1.10;;;;;;;;;;10493121;28;20072;-79
2022/12/25 12:35:15;;;;;;;1.13;0.80;;;;;;;;;;10481601;28;20086;-79
2022/12/25 12:40:29;;;;;;;3.30;1.20;;;;;;;;;;10537427;28;20127;-79
2022/12/25 12:45:55;;;;;;;2.67;1.20;;;;;;;;;;10508873;28;20178;-80
2022/12/25 12:51:05;;;;;;;2.53;1.90;;;;;;;;;;10527627;28;20036;-80
2022/12/25 12:56:25;;;;;;;4.13;2.60;;;;;;;;;;10508030;28;20478;-79
2022/12/25 13:01:45;;;;;;;3.15;1.60;;;;;;;;;;10507272;28;20081;-79
2022/12/25 13:07:08;;;;;;;2.10;1.77;;;;;;;;;;10527264;28;20043;-80
2022/12/25 13:12:30;;;;;;;1.92;1.60;;;;;;;;;;10549796;28;20127;-79
2022/12/25 13:17:47;;;;;;;2.85;1.50;;;;;;;;;;10515655;28;20126;-78
2022/12/25 13:28:30;;;;;;;3.97;1.80;;;;;;;;;;10539673;28;20039;-79
2022/12/25 13:33:49;;;;;;;1.30;1.20;;;;;;;;;;10561709;28;20046;-78
2022/12/25 13:39:01;;;;;;;2.78;1.30;;;;;;;;;;10601094;28;20048;-79
2022/12/25 13:49:38;;;;;;;1.52;0.90;;;;;;;;;;10582245;28;20535;-78
2022/12/25 13:55:00;;;;;;;2.55;1.50;;;;;;;;;;10559979;28;20489;-80
2022/12/25 14:00:26;;;;;;;2.38;1.30;;;;;;;;;;10522916;28;20040;-79
2022/12/25 14:05:40;;;;;;;2.15;1.25;;;;;;;;;;10537664;28;20059;-79
2022/12/25 14:10:49;;;;;;;1.60;1.02;;;;;;;;;;10542154;28;20039;-79
2022/12/25 14:16:02;;;;;;;1.75;1.13;;;;;;;;;;10537797;28;20400;-78
2022/12/25 14:21:25;;;;;;;2.08;1.20;;;;;;;;;;10525773;28;20402;-78
2022/12/25 14:26:31;;;;;;;2.95;1.20;;;;;;;;;;10551009;28;20044;-80
2022/12/25 14:31:45;;;;;;;1.70;1.20;;;;;;;;;;10543128;28;20043;-80
2022/12/25 14:37:04;;;;;;;2.95;1.45;;;;;;;;;;10552106;28;20033;-79
2022/12/25 14:42:16;;;;;;;7.00;1.80;;;;;;;;;;10547492;28;20050;-79
2022/12/25 14:47:25;;;;;;;2.10;1.17;;;;;;;;;;10533188;28;20062;-79
2022/12/25 14:52:54;;;;;;;4.70;2.35;;;;;;;;;;10532114;28;20039;-79
2022/12/25 14:58:05;;;;;;;2.20;1.27;;;;;;;;;;10532328;28;20115;-79
2022/12/25 15:03:26;;;;;;;1.88;1.23;;;;;;;;;;10537113;28;20044;-79
2022/12/25 15:08:36;;;;;;;5.15;2.40;;;;;;;;;;10551419;28;20075;-80
2022/12/25 15:13:51;;;;;;;2.60;1.42;;;;;;;;;;10534478;28;20064;-79
2022/12/25 15:18:55;;;;;;;2.97;1.40;;;;;;;;;;10537651;28;20044;-79
2022/12/25 15:24:01;;;;;;;;;;;;;;;;;;10542508;28;21704;-79
2022/12/25 15:29:15;;;;;;;5.68;1.27;;;;;;;;;;10555049;28;20304;-80
2022/12/25 15:34:44;;;;;;;1.67;1.00;;;;;;;;;;10549836;28;20405;-79
2022/12/25 15:39:55;;;;;;;2.25;1.30;;;;;;;;;;10542998;28;20125;-79
2022/12/25 15:45:17;;;;;;;2.50;1.10;;;;;;;;;;10564583;28;20393;-79
2022/12/25 15:50:26;;;;;;;2.00;1.15;;;;;;;;;;10538721;28;20126;-79
2022/12/25 15:55:40;;;;;;;2.42;1.30;;;;;;;;;;10546479;28;20430;-79
2022/12/25 16:01:07;;;;;;;4.72;1.73;;;;;;;;;;10562377;27;20039;-78
2022/12/25 16:06:26;;;;;;;7.32;1.33;;;;;;;;;;10539060;28;20039;-79
2022/12/25 16:11:37;;;;;;;3.47;1.57;;;;;;;;;;10541218;28;20039;-79
2022/12/25 16:16:42;;;;;;;5.78;1.90;;;;;;;;;;10536961;28;20044;-80
2022/12/25 16:21:54;;;;;;;5.70;2.10;;;;;;;;;;10543729;28;20068;-78
2022/12/25 16:27:05;;;;;;;6.15;2.38;;;;;;;;;;10554585;28;20051;-78
2022/12/25 16:32:23;;;;;;;3.03;1.80;;;;;;;;;;10549008;28;20216;-80
2022/12/25 16:37:29;;;;;;;6.93;2.67;;;;;;;;;;10552287;28;20043;-80
2022/12/25 16:42:41;;;;;;;5.70;2.70;;;;;;;;;;10543433;28;20032;-79
2022/12/25 16:47:54;;;;;;;6.25;2.47;;;;;;;;;;10533169;28;20561;-79
2022/12/25 16:53:05;;;;;;;6.40;2.33;;;;;;;;;;10528953;28;20039;-79
2022/12/25 16:58:15;;;;;;;2.65;1.52;;;;;;;;;;10515663;28;20504;-79
2022/12/25 17:03:19;;;;;;;3.92;2.00;;;;;;;;;;10516670;28;20104;-79
2022/12/25 17:08:31;;;;;;;4.22;2.33;;;;;;;;;;10564923;27;20044;-79
2022/12/25 17:13:41;;;;;;;6.50;2.50;;;;;;;;;;10552164;28;20047;-79
2022/12/25 17:18:50;;;;;;;4.82;2.33;;;;;;;;;;10535266;28;20050;-79
2022/12/25 17:24:03;;;;;;;4.88;2.33;;;;;;;;;;10538140;28;20432;-79
2022/12/25 17:29:17;;;;;;;5.95;2.83;;;;;;;;;;10541363;28;20683;-79
2022/12/25 17:34:43;;;;;;;7.53;3.40;;;;;;;;;;10534106;28;20120;-78
2022/12/25 17:39:58;;;;;;;7.78;3.63;;;;;;;;;;10540930;28;20419;-79
2022/12/25 17:45:20;;;;;;;5.35;3.22;;;;;;;;;;10539808;28;20582;-79
2022/12/25 17:50:35;;;;;;;8.82;3.30;;;;;;;;;;10535000;28;20553;-80
2022/12/25 17:56:16;;;;;;;6.32;3.17;;;;;;;;;;10554287;28;20106;-79
2022/12/25 18:01:24;;;;;;;4.38;2.33;;;;;;;;;;10546283;28;20100;-79
2022/12/25 18:06:33;;;;;;;6.55;3.03;;;;;;;;;;10560779;28;20453;-80
2022/12/25 18:11:50;;;;;;;7.28;3.15;;;;;;;;;;10551199;28;20144;-79
2022/12/25 18:16:57;;;;;;;8.95;3.70;;;;;;;;;;10555211;28;20058;-79
2022/12/25 18:22:10;;;;;;;3.25;1.40;;;;;;;;;;10557256;28;20130;-79
2022/12/25 18:27:20;;;;;;;9.13;3.30;;;;;;;;;;10554135;28;20089;-79
2022/12/25 18:32:32;;;;;;;3.60;1.50;;;;;;;;;;10539930;28;20119;-79
2022/12/25 18:37:38;;;;;;;6.97;3.20;;;;;;;;;;10521421;28;20039;-79
2022/12/25 18:42:57;;;;;;;8.70;3.42;;;;;;;;;;10551680;28;20044;-79
2022/12/25 18:48:10;;;;;;;4.78;2.50;;;;;;;;;;10575293;27;20153;-79
2022/12/25 18:53:15;;;;;;;5.43;2.50;;;;;;;;;;10536347;28;20040;-78
2022/12/25 18:58:32;;;;;;;5.22;2.78;;;;;;;;;;10530045;28;20038;-79
2022/12/25 19:03:47;;;;;;;4.97;2.28;;;;;;;;;;10541746;28;20043;-79
2022/12/25 19:08:58;;;;;;;5.40;2.05;;;;;;;;;;10553622;28;20122;-79
2022/12/25 19:14:07;;;;;;;1.80;1.40;;;;;;;;;;10565160;27;20055;-78
2022/12/25 19:19:19;;;;;;;1.53;1.03;;;;;;;;;;10543304;28;20044;-78
2022/12/25 19:24:33;;;;;;;5.45;1.73;;;;;;;;;;10555538;28;20040;-78
2022/12/25 19:29:51;;;;;;;4.32;1.75;;;;;;;;;;10557568;28;20055;-78
2022/12/25 19:34:55;;;;;;;3.17;1.27;;;;;;;;;;10550602;28;20117;-78
2022/12/25 19:39:59;;;;;;;3.38;1.45;;;;;;;;;;10545986;28;20043;-79
2022/12/25 19:45:15;;;;;;;2.05;1.25;;;;;;;;;;10531164;28;20039;-80
2022/12/25 19:50:27;;;;;;;0.63;0.60;;;;;;;;;;10525976;28;20660;-79
2022/12/25 19:55:42;;;;;;;3.75;1.15;;;;;;;;;;10570387;28;20118;-78
2022/12/25 20:01:05;;;;;;;3.45;1.10;;;;;;;;;;10535763;28;20036;-80
2022/12/25 20:06:20;;;;;;;2.30;1.02;;;;;;;;;;10527272;28;20036;-79
2022/12/25 20:11:27;;;;;;;4.00;1.05;;;;;;;;;;10530060;28;20036;-79
2022/12/25 20:16:43;;;;;;;2.38;1.20;;;;;;;;;;10543196;28;20131;-79
2022/12/25 20:21:57;;;;;;;1.75;1.13;;;;;;;;;;10531901;28;20396;-79
2022/12/25 20:27:04;;;;;;;5.88;1.85;;;;;;;;;;10553341;28;20151;-78
2022/12/25 20:37:41;;;;;;;2.85;1.42;;;;;;;;;;10527234;28;20040;-78
2022/12/25 20:42:45;;;;;;;2.40;1.05;;;;;;;;;;10539322;28;20046;-80
2022/12/25 20:48:05;;;;;;;1.20;1.08;;;;;;;;;;10552836;28;20100;-79
2022/12/25 20:53:20;;;;;;;3.13;1.70;;;;;;;;;;10537558;28;20118;-80
2022/12/25 20:58:28;;;;;;;3.22;1.30;;;;;;;;;;10545685;28;20039;-80
2022/12/25 21:03:35;;;;;;;3.05;1.60;;;;;;;;;;10533347;28;20046;-80
2022/12/25 21:08:43;;;;;;;2.67;1.75;;;;;;;;;;10536977;28;20061;-78
2022/12/25 21:13:52;;;;;;;2.17;1.00;;;;;;;;;;10531870;28;20043;-78
2022/12/25 21:19:01;;;;;;;3.78;1.90;;;;;;;;;;10550621;28;20493;-78
2022/12/25 21:24:08;;;;;;;1.88;1.25;;;;;;;;;;10542043;28;20039;-79
2022/12/25 21:29:23;;;;;;;8.00;2.20;;;;;;;;;;10542129;28;20064;-79
2022/12/25 21:40:33;;;;;;;3.10;1.45;;;;;;;;;;10530083;28;20424;-79
2022/12/25 21:45:45;;;;;;;;;;;;;;;;;;10562396;28;20376;-78
2022/12/25 21:57:03;;;;;;;5.18;1.48;;;;;;;;;;10441919;28;20416;-79
2022/12/25 22:02:18;;;;;;;4.32;1.70;;;;;;;;;;10548226;28;20036;-79
2022/12/25 22:07:25;;;;;;;3.38;1.50;;;;;;;;;;10547910;28;20052;-80
2022/12/25 22:23:42;;;;;;;1.08;0.80;;;;;;;;;;10562934;28;20514;-80
2022/12/25 22:28:59;;;;;;;4.68;1.80;;;;;;;;;;10558168;28;20043;-80
2022/12/25 22:34:18;;;;;;;2.63;1.27;;;;;;;;;;10583930;27;20036;-80
2022/12/25 22:39:27;;;;;;;2.10;1.17;;;;;;;;;;10551710;28;20397;-81
2022/12/25 22:44:55;;;;;;;3.25;1.80;;;;;;;;;;10556946;28;20079;-81
2022/12/25 22:50:43;;;;;;;6.53;1.67;;;;;;;;;;10555723;28;20079;-80
2022/12/25 22:56:00;;;;;;;2.10;1.40;;;;;;;;;;10524709;28;20507;-80
2022/12/25 23:01:21;;;;;;;1.95;0.95;;;;;;;;;;10547689;28;20125;-79
2022/12/25 23:11:56;;;;;;;1.23;1.10;;;;;;;;;;10540066;28;20032;-80
2022/12/25 23:17:04;;;;;;;4.90;1.88;;;;;;;;;;10560039;28;20381;-80
2022/12/25 23:27:37;;;;;;;2.00;1.10;;;;;;;;;;10547797;28;20040;-77
2022/12/25 23:38:22;;;;;;;4.43;1.60;;;;;;;;;;10553759;28;20052;-78
2022/12/25 23:43:44;;;;;;;4.38;1.80;;;;;;;;;;10543711;28;20120;-79
2022/12/25 23:48:55;;;;;;;2.95;1.30;;;;;;;;;;10541970;28;20036;-79
2022/12/25 23:54:04;;;;;;;2.03;1.27;;;;;;;;;;10555871;28;20043;-79
2022/12/25 23:59:40;;;;;;;0.47;0.28;;;;;;;;;;10555581;28;20193;-79
